Terminal Aerodrome Forecast
Issued by NWS Northern Indiana

Home | Current Version | Previous Version | Text Only | Print | Product List | Glossary On
Versions: 1 2 3 4 5 6 7 8 9 10 11 12 13 14 15 16
000
FTUS43 KIWX 230700 AAA
TAFFWA
TAF AMD
KFWA 230758Z 2308/2406 00000KT 3SM BR SCT004
      TEMPO 2308/2312 3/4SM BR SCT010
     FM231500 24005KT P6SM SCT025
     FM240300 21004KT P6SM BKN250=

USA.gov is the U.S. government's official web portal to all federal, state and local government web resources and services.